Aérodrome :
LOGIN :

S'inscrire | Disclaimer

   EN    FR    IT 

 










Légende :    VFR   VFR Marginal   IFR   IFR Intensif   IFR Très Intensif
Visi : 
Plafond : 
>= 8 km
>= 3000ft
5 à 8 km
1000 à 3000 ft
1500m à 5 km
500 à 1000 ft
800 à 1500m
200 à 500 ft
< 800m
< 200 ft
Symboles :   Orages  Brouillard  Fortes neiges  Fortes précipitations  Vent > 20 kt
SIGMETs :   Divers  Orages  Givrage  Turbulence  Onde Orograph.  Cendres Volcan.






- Altitude de l'aérodrome : 209 ft
- Code IATA : CLY


LFKC - Calvi

DERNIER METAR :
  • 071400Z AUTO 21010KT CAVOK 17/09 Q1018 TEMPO 20015G25KT

METARs EXPIRÉS :
  • 071330Z AUTO 21012KT 180V240 CAVOK 17/10 Q1018 TEMPO 20015G25KT
  • 071300Z AUTO 21015KT CAVOK 17/09 Q1018 TEMPO 20015G25KT
  • 071230Z AUTO 21011KT CAVOK 18/10 Q1019 TEMPO 20015G25KT
  • 071200Z AUTO 22010KT 190V250 CAVOK 18/09 Q1019 TEMPO 20015G25KT
  • 071130Z AUTO 21014KT CAVOK 18/09 Q1019 TEMPO 20015G25KT

TAF TAF LFKC
Valide du 07 à 09h jusqu'au 08 à 09h UTC


070800Z 0709/0809 21012KT CAVOK TX17/0712Z TN09/0805Z
PROB30
TEMPO 0712/0716 20015G25KT
BECMG 0720/0722 19007KT
ATIS : +33 4 95 65 82 49



MET'MAP, la Météo Aéronautique d'un coup d'oeil ! - Copyright ORBIFLY Décembre 2007 - Disclaimer

ORBIFLY MET'MAP TEAM :

Programmation & Développement : Alexandra Zaïnal
Sur une idée originale de : Baudouin d'Aumeries
Assistance à la programmation : Marc-Olivier Méhu
Soutien technique & logistique : Manuel Goepfert

Contact : metmap@orbifly.com




SOURCES & CREDITS :

   NOAA